createdAt,value
2019-03-02T00:01:37.861Z,76.80
2019-03-02T00:04:10.125Z,77.60
2019-03-02T00:06:38.719Z,78.20
2019-03-02T00:09:08.484Z,78.10
2019-03-02T00:11:38.132Z,78.90
2019-03-02T00:14:07.805Z,79.60
2019-03-02T00:16:39.772Z,80.70
2019-03-02T00:19:08.720Z,81.90
2019-03-02T00:21:38.336Z,82.70
2019-03-02T00:24:07.918Z,83.50
2019-03-02T00:26:37.551Z,83.00
2019-03-02T00:29:07.667Z,83.10
2019-03-02T00:31:38.418Z,83.20
2019-03-02T00:34:08.039Z,84.50
2019-03-02T00:36:37.646Z,84.00
2019-03-02T00:39:09.158Z,84.90
2019-03-02T00:41:42.077Z,84.70
2019-03-02T00:44:10.031Z,85.30
2019-03-02T00:46:39.651Z,84.10
2019-03-02T00:49:09.253Z,83.60
2019-03-02T00:51:39.008Z,84.10
2019-03-02T00:54:11.375Z,83.90
2019-03-02T00:56:42.548Z,84.50
2019-03-02T00:59:11.153Z,84.20
2019-03-02T01:01:40.734Z,84.60
2019-03-02T01:04:10.490Z,85.00
2019-03-02T01:06:40.112Z,85.40
2019-03-02T01:09:11.759Z,85.20
2019-03-02T01:11:41.232Z,86.50
2019-03-02T01:14:10.846Z,87.50
2019-03-02T01:16:40.440Z,86.50
2019-03-02T01:19:10.071Z,87.00
2019-03-02T01:21:41.290Z,86.90
2019-03-02T01:24:11.019Z,85.90
2019-03-02T01:26:40.600Z,86.00
2019-03-02T01:29:10.197Z,87.70
2019-03-02T01:31:40.656Z,88.70
2019-03-02T01:34:11.111Z,89.60
2019-03-02T01:36:40.722Z,90.60
2019-03-02T01:39:10.298Z,90.10
2019-03-02T01:41:39.941Z,91.20
2019-03-02T01:44:12.734Z,92.60
2019-03-02T01:46:41.006Z,92.80
2019-03-02T01:49:11.331Z,92.60
2019-03-02T01:51:40.938Z,90.80
2019-03-02T01:54:10.530Z,90.00
2019-03-02T01:56:41.333Z,90.20
2019-03-02T01:59:11.348Z,90.20
2019-03-02T02:01:41.000Z,91.00
2019-03-02T02:04:10.615Z,91.50
2019-03-02T02:06:42.797Z,92.40
2019-03-02T02:09:11.454Z,93.00
2019-03-02T02:11:41.406Z,93.50
2019-03-02T02:14:10.975Z,93.80
2019-03-02T02:16:41.792Z,93.10
2019-03-02T02:19:11.555Z,94.10
2019-03-02T02:21:41.162Z,94.70
2019-03-02T02:24:10.742Z,95.70
2019-03-02T02:26:40.407Z,94.40
2019-03-02T02:29:09.998Z,93.90
2019-03-02T02:31:44.181Z,94.30
2019-03-02T02:34:10.872Z,95.10
2019-03-02T02:36:40.510Z,96.00
2019-03-02T02:39:14.604Z,95.40
2019-03-02T02:41:44.166Z,95.60
2019-03-02T02:44:13.714Z,95.70
2019-03-02T02:46:43.370Z,95.70
2019-03-02T02:49:13.011Z,96.30
2019-03-02T02:51:44.536Z,96.70
2019-03-02T02:54:19.021Z,97.40
2019-03-02T02:56:45.084Z,97.60
2019-03-02T02:59:14.746Z,97.90
2019-03-02T03:01:44.366Z,97.60
2019-03-02T03:04:13.953Z,96.30
2019-03-02T03:06:43.522Z,95.90
2019-03-02T03:09:24.885Z,95.90
2019-03-02T03:11:54.460Z,96.30
2019-03-02T03:14:24.039Z,96.80
2019-03-02T03:16:54.208Z,96.70
2019-03-02T03:19:26.109Z,96.50
2019-03-02T03:21:56.379Z,96.00
2019-03-02T03:24:26.040Z,95.80
2019-03-02T03:26:55.651Z,96.40
2019-03-02T03:29:25.228Z,95.90
2019-03-02T03:32:07.658Z,97.20
2019-03-02T03:34:30.103Z,97.00
2019-03-02T03:36:57.400Z,96.40
2019-03-02T03:39:26.985Z,95.20
2019-03-02T03:41:56.582Z,94.70
2019-03-02T03:44:27.769Z,95.10
2019-03-02T03:47:00.774Z,95.80
2019-03-02T03:49:29.994Z,96.00
2019-03-02T03:52:03.995Z,96.60
2019-03-02T03:54:31.353Z,97.00
2019-03-02T03:57:00.945Z,97.20
2019-03-02T03:59:30.542Z,96.80
2019-03-02T04:02:00.195Z,96.60
2019-03-02T04:04:30.684Z,97.10
2019-03-02T04:07:01.362Z,97.20
2019-03-02T04:09:31.686Z,97.50
2019-03-02T04:12:01.276Z,98.00
2019-03-02T04:14:30.859Z,98.70
2019-03-02T04:17:01.659Z,99.00
2019-03-02T04:19:34.250Z,99.10
2019-03-02T04:22:06.398Z,99.50
2019-03-02T04:24:40.020Z,99.10
2019-03-02T04:27:11.017Z,98.60
2019-03-02T04:29:48.992Z,98.50
2019-03-02T04:32:10.883Z,98.00
2019-03-02T04:34:40.513Z,98.60
2019-03-02T04:37:10.145Z,98.60
2019-03-02T04:39:39.752Z,98.60
2019-03-02T04:42:11.731Z,98.60
2019-03-02T04:44:40.643Z,98.60
2019-03-02T04:47:10.198Z,98.70
2019-03-02T04:49:39.823Z,98.40
2019-03-02T04:52:11.604Z,98.50
2019-03-02T04:54:40.649Z,98.80
2019-03-02T04:57:10.289Z,99.20
2019-03-02T04:59:39.878Z,99.40
2019-03-02T05:02:09.517Z,99.70
2019-03-02T05:04:39.133Z,99.20
2019-03-02T05:07:08.799Z,99.30
2019-03-02T05:09:38.362Z,99.80
2019-03-02T05:12:08.051Z,99.90
2019-03-02T05:14:40.263Z,99.90
2019-03-02T05:17:08.857Z,99.90
2019-03-02T05:19:38.479Z,99.90
2019-03-02T05:22:08.058Z,99.90
2019-03-02T05:24:40.463Z,99.70
2019-03-02T05:27:08.944Z,99.20
2019-03-02T05:29:38.511Z,99.40
2019-03-02T05:32:08.077Z,99.70
2019-03-02T05:34:39.783Z,99.50
2019-03-02T05:37:08.972Z,99.50
2019-03-02T05:39:38.504Z,98.80
2019-03-02T05:42:10.388Z,98.50
2019-03-02T05:44:39.414Z,99.30
2019-03-02T05:47:09.007Z,99.40
2019-03-02T05:49:38.649Z,99.10
2019-03-02T05:52:08.226Z,98.80
2019-03-02T05:54:38.598Z,99.20
2019-03-02T05:57:09.176Z,99.80
2019-03-02T05:59:38.798Z,99.90
2019-03-02T06:02:08.371Z,99.90
2019-03-02T06:04:37.961Z,99.80
2019-03-02T06:07:07.585Z,99.90
2019-03-02T06:09:37.233Z,99.90
2019-03-02T06:12:06.855Z,99.90
2019-03-02T06:14:36.456Z,99.90
2019-03-02T06:17:06.050Z,99.90
2019-03-02T06:19:35.765Z,99.90
2019-03-02T06:22:05.352Z,99.90
2019-03-02T06:24:37.688Z,99.90
2019-03-02T06:27:07.809Z,99.90
2019-03-02T06:29:38.198Z,99.90
2019-03-02T06:32:07.892Z,99.90
2019-03-02T06:34:37.750Z,99.90
2019-03-02T06:37:07.374Z,99.90
2019-03-02T06:39:36.955Z,99.90
2019-03-02T06:42:09.845Z,99.90
2019-03-02T06:44:37.866Z,99.90
2019-03-02T06:47:07.520Z,99.90
2019-03-02T06:49:37.385Z,99.90
2019-03-02T06:52:07.329Z,99.90
2019-03-02T06:54:37.158Z,99.90
2019-03-02T06:57:06.776Z,99.90
2019-03-02T06:59:39.320Z,99.90
2019-03-02T07:02:07.684Z,99.90
2019-03-02T07:04:37.282Z,99.90
2019-03-02T07:07:06.873Z,99.90
2019-03-02T07:09:36.442Z,99.90
2019-03-02T07:12:09.302Z,99.90
2019-03-02T07:14:37.322Z,99.90
2019-03-02T07:17:07.007Z,99.90
2019-03-02T07:19:56.233Z,99.90
2019-03-02T07:22:25.862Z,99.90
2019-03-02T07:24:55.429Z,99.90
2019-03-02T07:27:26.368Z,99.90
2019-03-02T07:29:56.474Z,99.90
2019-03-02T07:32:26.006Z,99.90
2019-03-02T07:34:55.644Z,99.90
2019-03-02T07:37:25.270Z,99.90
2019-03-02T07:39:54.882Z,99.90
2019-03-02T07:42:24.739Z,99.90
2019-03-02T07:44:54.963Z,99.90
2019-03-02T07:47:25.571Z,99.90
2019-03-02T07:49:55.269Z,94.70
2019-03-02T07:52:24.923Z,92.70
2019-03-02T07:54:58.362Z,79.90
2019-03-02T07:57:25.764Z,81.70
2019-03-02T07:59:55.389Z,85.30
2019-03-02T08:02:25.796Z,89.70
2019-03-02T08:04:56.724Z,97.80
2019-03-02T08:07:26.342Z,99.90
2019-03-02T08:09:58.989Z,99.60
2019-03-02T08:12:27.176Z,90.40
2019-03-02T08:14:56.918Z,89.90
2019-03-02T08:17:26.591Z,97.80
2019-03-02T08:19:56.175Z,99.90
2019-03-02T08:22:26.023Z,86.30
2019-03-02T08:24:55.653Z,83.30
2019-03-02T08:27:25.289Z,90.90
2019-03-02T08:29:57.304Z,91.70
2019-03-02T08:32:26.353Z,94.10
2019-03-02T08:34:56.030Z,94.80
2019-03-02T08:37:26.683Z,93.40
2019-03-02T08:39:57.022Z,93.30
2019-03-02T08:42:26.891Z,93.50
2019-03-02T08:44:56.531Z,93.70
2019-03-02T08:47:26.129Z,94.40
2019-03-02T08:49:56.124Z,94.00
2019-03-02T08:52:25.933Z,97.00
2019-03-02T08:54:57.058Z,95.10
2019-03-02T08:57:27.288Z,92.60
2019-03-02T08:59:56.904Z,91.60
2019-03-02T09:02:26.481Z,92.10
2019-03-02T09:04:56.271Z,93.50
2019-03-02T09:07:25.950Z,96.10
2019-03-02T09:09:55.530Z,95.80
2019-03-02T09:12:25.132Z,90.80
2019-03-02T09:14:54.770Z,77.70
2019-03-02T09:17:24.473Z,76.20
2019-03-02T09:19:55.802Z,76.90
2019-03-02T09:22:25.854Z,80.60
2019-03-02T09:24:55.524Z,80.50
2019-03-02T09:27:25.112Z,80.20
2019-03-02T09:29:55.832Z,81.30
2019-03-02T09:32:26.328Z,82.40
2019-03-02T09:34:56.034Z,82.80
2019-03-02T09:37:25.691Z,83.00
2019-03-02T09:39:55.286Z,81.10
2019-03-02T09:42:24.928Z,82.30
2019-03-02T09:44:54.510Z,82.60
2019-03-02T09:47:24.092Z,91.90
2019-03-02T09:49:53.710Z,90.50
2019-03-02T09:52:23.314Z,84.30
2019-03-02T09:54:53.005Z,84.70
2019-03-02T09:57:22.679Z,81.90
2019-03-02T09:59:52.298Z,77.20
2019-03-02T10:02:21.842Z,76.00
2019-03-02T10:04:51.490Z,77.90
2019-03-02T10:07:23.544Z,80.20
2019-03-02T10:09:52.386Z,71.90
2019-03-02T10:12:22.040Z,70.20
2019-03-02T10:14:51.755Z,68.40
2019-03-02T10:17:21.356Z,67.20
2019-03-02T10:19:51.039Z,68.80
2019-03-02T10:22:23.388Z,68.20
2019-03-02T10:24:53.270Z,69.60
2019-03-02T10:27:23.188Z,71.10
2019-03-02T10:29:52.783Z,74.20
2019-03-02T10:32:22.395Z,73.00
2019-03-02T10:34:52.011Z,71.80
2019-03-02T10:37:22.559Z,73.40
2019-03-02T10:39:52.739Z,71.20
2019-03-02T10:42:22.340Z,68.90
2019-03-02T10:44:53.695Z,70.80
2019-03-02T10:47:23.171Z,66.10
2019-03-02T10:49:52.746Z,66.50
2019-03-02T10:52:22.445Z,68.50
2019-03-02T10:54:52.063Z,70.60
2019-03-02T10:57:21.693Z,68.70
2019-03-02T10:59:51.751Z,64.30
2019-03-02T11:02:22.703Z,68.20
2019-03-02T11:05:26.575Z,59.50
2019-03-02T11:08:04.604Z,60.40
2019-03-02T11:10:53.307Z,58.90
2019-03-02T11:13:55.273Z,58.30
2019-03-02T11:16:47.781Z,57.10
2019-03-02T11:19:37.589Z,56.10
2019-03-02T11:22:15.159Z,54.10
2019-03-02T11:25:10.124Z,53.50
2019-03-02T11:28:04.729Z,51.70
2019-03-02T11:30:48.043Z,51.00
2019-03-02T11:33:35.412Z,50.00
2019-03-02T11:36:26.688Z,49.60
2019-03-02T11:39:05.363Z,48.60
2019-03-02T11:41:49.709Z,48.00
2019-03-02T11:44:38.202Z,47.00
2019-03-02T11:47:26.712Z,45.80
2019-03-02T11:50:03.944Z,46.40
2019-03-02T11:53:04.614Z,46.60
2019-03-02T11:55:58.950Z,47.20
2019-03-02T11:58:46.299Z,47.80
2019-03-02T12:01:49.890Z,49.20
2019-03-02T12:04:41.422Z,44.60
2019-03-02T12:07:35.790Z,43.00
2019-03-02T12:10:25.111Z,43.50
2019-03-02T12:13:19.702Z,38.50
2019-03-02T12:16:22.159Z,35.30
2019-03-02T12:18:59.811Z,33.80
2019-03-02T12:21:43.951Z,32.60
2019-03-02T12:24:32.443Z,33.80
2019-03-02T12:27:22.381Z,33.40
2019-03-02T12:30:11.451Z,32.30
2019-03-02T12:33:03.106Z,33.00
2019-03-02T12:36:00.562Z,31.20
2019-03-02T12:38:48.068Z,32.40
2019-03-02T12:41:37.273Z,30.70
2019-03-02T12:44:20.890Z,30.20
2019-03-02T12:47:07.513Z,30.60
2019-03-02T12:49:47.098Z,30.80
2019-03-02T12:52:51.782Z,31.90
2019-03-02T12:55:59.527Z,30.30
2019-03-02T12:58:48.024Z,31.30
2019-03-02T13:01:28.706Z,31.70
2019-03-02T13:04:09.272Z,32.90
2019-03-02T13:06:56.190Z,32.30
2019-03-02T13:09:44.665Z,32.80
2019-03-02T13:12:42.833Z,36.10
2019-03-02T13:15:35.585Z,32.90
2019-03-02T13:18:29.925Z,32.70
2019-03-02T13:21:24.567Z,37.80
2019-03-02T13:24:14.779Z,32.50
2019-03-02T13:27:16.332Z,31.30
2019-03-02T13:30:03.475Z,32.10
2019-03-02T13:32:56.021Z,31.60
2019-03-02T13:36:00.477Z,33.80
2019-03-02T13:38:53.467Z,31.60
2019-03-02T13:41:48.295Z,31.90
2019-03-02T13:44:43.414Z,31.00
2019-03-02T13:47:31.225Z,32.00
2019-03-02T13:50:20.217Z,29.90
2019-03-02T13:53:01.864Z,29.70
2019-03-02T13:55:36.570Z,29.20
2019-03-02T13:58:18.170Z,29.30
2019-03-02T14:00:54.242Z,29.10
2019-03-02T14:03:51.063Z,29.10
2019-03-02T14:06:45.027Z,29.20
2019-03-02T14:09:32.449Z,28.70
2019-03-02T14:12:23.699Z,27.70
2019-03-02T14:15:17.319Z,28.70
2019-03-02T14:18:17.649Z,28.30
2019-03-02T14:21:07.705Z,29.10
2019-03-02T14:23:48.502Z,26.90
2019-03-02T14:26:39.810Z,26.60
2019-03-02T14:29:18.351Z,26.50
2019-03-02T14:31:59.653Z,26.60
2019-03-02T14:35:00.286Z,26.30
2019-03-02T14:37:34.482Z,26.50
2019-03-02T14:40:20.933Z,26.20
2019-03-02T14:43:24.857Z,25.30
2019-03-02T14:46:23.274Z,25.90
2019-03-02T14:49:24.383Z,27.10
2019-03-02T14:52:20.591Z,28.10
2019-03-02T14:55:07.754Z,28.30
2019-03-02T14:57:56.719Z,27.60
2019-03-02T15:00:44.612Z,28.10
2019-03-02T15:03:45.186Z,27.70
2019-03-02T15:06:40.596Z,28.60
2019-03-02T15:09:22.396Z,29.60
2019-03-02T15:12:12.544Z,30.80
2019-03-02T15:14:58.685Z,29.60
2019-03-02T15:17:53.455Z,29.10
2019-03-02T15:20:36.726Z,29.10
2019-03-02T15:23:29.080Z,28.80
2019-03-02T15:26:06.335Z,28.70
2019-03-02T15:28:59.974Z,29.00
2019-03-02T15:31:45.223Z,29.20
2019-03-02T15:34:39.667Z,29.50
2019-03-02T15:37:29.565Z,29.50
2019-03-02T15:40:06.614Z,29.60
2019-03-02T15:43:07.411Z,30.70
2019-03-02T15:45:43.888Z,31.00
2019-03-02T15:48:35.731Z,31.30
2019-03-02T15:51:15.771Z,31.90
2019-03-02T15:54:07.345Z,31.50
2019-03-02T15:56:48.282Z,32.00
2019-03-02T15:59:55.200Z,31.80
2019-03-02T16:02:52.905Z,31.50
2019-03-02T16:05:47.790Z,32.10
2019-03-02T16:08:31.843Z,32.00
2019-03-02T16:11:35.677Z,31.90
2019-03-02T16:14:26.278Z,32.70
2019-03-02T16:17:09.261Z,33.30
2019-03-02T16:19:46.692Z,33.90
2019-03-02T16:22:34.235Z,34.60
2019-03-02T16:25:19.431Z,35.00
2019-03-02T16:28:14.149Z,35.40
2019-03-02T16:30:53.141Z,36.20
2019-03-02T16:33:47.051Z,36.80
2019-03-02T16:36:50.684Z,38.10
2019-03-02T16:39:42.617Z,37.80
2019-03-02T16:42:35.481Z,38.30
2019-03-02T16:45:19.920Z,38.60
2019-03-02T16:48:11.771Z,38.90
2019-03-02T16:51:06.711Z,39.50
2019-03-02T16:54:01.483Z,39.60
2019-03-02T16:56:53.870Z,39.80
2019-03-02T16:59:45.791Z,40.00
2019-03-02T17:02:47.142Z,39.70
2019-03-02T17:05:42.392Z,39.80
2019-03-02T17:08:31.122Z,40.20
2019-03-02T17:11:22.538Z,40.50
2019-03-02T17:14:20.242Z,40.70
2019-03-02T17:17:11.944Z,41.10
2019-03-02T17:19:49.259Z,41.40
2019-03-02T17:22:32.454Z,41.50
2019-03-02T17:25:19.321Z,42.40
2019-03-02T17:28:20.195Z,42.80
2019-03-02T17:31:13.954Z,42.80
2019-03-02T17:34:14.734Z,43.00
2019-03-02T17:37:10.772Z,43.30
2019-03-02T17:40:01.169Z,43.20
2019-03-02T17:42:47.442Z,43.40
2019-03-02T17:45:42.102Z,44.00
2019-03-02T17:48:48.722Z,44.10
2019-03-02T17:51:39.963Z,44.20
2019-03-02T17:54:28.524Z,44.40
2019-03-02T17:57:14.019Z,44.50
2019-03-02T18:00:10.883Z,44.60
2019-03-02T18:02:59.226Z,44.80
2019-03-02T18:05:53.644Z,44.90
2019-03-02T18:08:48.642Z,45.10
2019-03-02T18:11:50.383Z,45.30
2019-03-02T18:14:43.641Z,45.70
2019-03-02T18:17:32.162Z,45.90
2019-03-02T18:20:01.778Z,46.20
2019-03-02T18:22:31.458Z,46.40
2019-03-02T18:25:01.085Z,46.30
2019-03-02T18:27:33.298Z,46.50
2019-03-02T18:30:06.119Z,46.60
2019-03-02T18:32:34.110Z,46.40
2019-03-02T18:35:05.483Z,46.50
2019-03-02T18:37:35.140Z,47.70
2019-03-02T18:40:05.043Z,48.20
2019-03-02T18:42:34.880Z,48.20
2019-03-02T18:45:04.741Z,47.80
2019-03-02T18:47:34.406Z,48.00
2019-03-02T18:50:41.644Z,47.50
2019-03-02T18:53:11.268Z,47.90
2019-03-02T18:55:40.877Z,48.30
2019-03-02T18:58:10.558Z,48.20
2019-03-02T19:00:43.958Z,48.30
2019-03-02T19:03:13.622Z,52.20
2019-03-02T19:05:46.182Z,51.20
2019-03-02T19:08:14.995Z,47.90
2019-03-02T19:10:45.782Z,47.60
2019-03-02T19:13:15.462Z,48.80
2019-03-02T19:15:53.529Z,49.70
2019-03-02T19:18:17.163Z,48.80
2019-03-02T19:20:47.334Z,49.40
2019-03-02T19:23:16.992Z,49.00
2019-03-02T19:25:46.633Z,48.90
2019-03-02T19:28:16.284Z,49.60
2019-03-02T19:30:45.895Z,49.80
2019-03-02T19:33:15.539Z,50.00
2019-03-02T19:35:45.172Z,50.30
2019-03-02T19:38:14.875Z,50.60
2019-03-02T19:40:44.523Z,50.90
2019-03-02T19:43:14.164Z,51.80
2019-03-02T19:45:43.817Z,51.50
2019-03-02T19:48:13.490Z,51.50
2019-03-02T19:50:43.164Z,51.70
2019-03-02T19:53:12.777Z,51.50
2019-03-02T19:55:42.475Z,51.50
2019-03-02T19:58:12.122Z,51.90
2019-03-02T20:00:42.145Z,52.20
2019-03-02T20:03:12.153Z,52.50
2019-03-02T20:05:41.775Z,52.60
2019-03-02T20:08:11.446Z,52.70
2019-03-02T20:10:41.045Z,52.70
2019-03-02T20:13:10.809Z,52.70
2019-03-02T20:15:40.633Z,53.10
2019-03-02T20:18:10.259Z,53.50
2019-03-02T20:20:39.877Z,53.80
2019-03-02T20:23:09.629Z,53.90
2019-03-02T20:25:39.663Z,53.70
2019-03-02T20:28:09.331Z,54.10
2019-03-02T20:30:39.076Z,53.80
2019-03-02T20:33:08.761Z,53.80
2019-03-02T20:35:38.387Z,53.80
2019-03-02T20:38:08.114Z,54.10
2019-03-02T20:40:37.743Z,54.20
2019-03-02T20:43:07.396Z,54.40
2019-03-02T20:45:37.033Z,54.90
2019-03-02T20:48:06.740Z,55.40
2019-03-02T20:50:36.407Z,55.20
2019-03-02T20:53:06.007Z,55.30
2019-03-02T20:55:35.627Z,55.00
2019-03-02T20:58:05.349Z,54.80
2019-03-02T21:00:34.991Z,54.70
2019-03-02T21:03:04.673Z,54.60
2019-03-02T21:05:34.823Z,54.80
2019-03-02T21:08:04.562Z,54.90
2019-03-02T21:10:34.267Z,55.10
2019-03-02T21:13:03.861Z,55.10
2019-03-02T21:15:35.282Z,55.40
2019-03-02T21:18:05.400Z,55.40
2019-03-02T21:20:36.593Z,54.90
2019-03-02T21:23:06.728Z,54.50
2019-03-02T21:25:36.455Z,54.70
2019-03-02T21:28:06.278Z,54.80
2019-03-02T21:30:36.174Z,54.70
2019-03-02T21:33:05.890Z,54.70
2019-03-02T21:35:35.623Z,54.70
2019-03-02T21:38:05.342Z,54.10
2019-03-02T21:40:35.099Z,54.00
2019-03-02T21:43:04.955Z,54.00
2019-03-02T21:45:34.675Z,55.00
2019-03-02T21:48:04.534Z,55.30
2019-03-02T21:50:34.326Z,54.60
2019-03-02T21:53:04.049Z,54.70
2019-03-02T21:55:33.822Z,54.90
2019-03-02T21:58:03.459Z,55.20
2019-03-02T22:00:33.139Z,55.50
2019-03-02T22:03:02.863Z,55.50
2019-03-02T22:05:32.444Z,55.70
2019-03-02T22:08:02.065Z,55.70
2019-03-02T22:10:37.880Z,55.70
2019-03-02T22:13:07.528Z,55.50
2019-03-02T22:15:37.295Z,55.50
2019-03-02T22:18:06.977Z,55.30
2019-03-02T22:20:36.705Z,55.50
2019-03-02T22:23:06.325Z,55.50
2019-03-02T22:25:35.951Z,56.10
2019-03-02T22:28:05.582Z,56.00
2019-03-02T22:30:35.157Z,56.10
2019-03-02T22:33:04.887Z,58.80
2019-03-02T22:35:34.527Z,56.70
2019-03-02T22:38:04.088Z,56.40
2019-03-02T22:40:33.722Z,56.50
2019-03-02T22:43:03.368Z,56.40
2019-03-02T22:45:33.010Z,56.40
2019-03-02T22:48:02.643Z,56.80
2019-03-02T22:50:32.254Z,56.90
2019-03-02T22:53:01.892Z,57.00
2019-03-02T22:55:31.572Z,56.80
2019-03-02T22:58:01.934Z,56.40
2019-03-02T23:01:08.113Z,55.80
2019-03-02T23:03:35.983Z,55.60
2019-03-02T23:06:08.527Z,56.10
2019-03-02T23:08:38.127Z,56.40
2019-03-02T23:11:07.863Z,57.00
2019-03-02T23:13:37.650Z,57.00
2019-03-02T23:16:07.274Z,56.90
2019-03-02T23:18:37.000Z,56.80
2019-03-02T23:21:06.586Z,56.80
2019-03-02T23:23:36.248Z,56.60
2019-03-02T23:26:05.869Z,57.00
2019-03-02T23:28:35.457Z,57.40
2019-03-02T23:31:05.082Z,57.70
2019-03-02T23:33:34.649Z,58.00
2019-03-02T23:36:04.344Z,58.60
2019-03-02T23:38:34.038Z,58.90
2019-03-02T23:41:03.827Z,59.70
2019-03-02T23:43:33.414Z,60.50
2019-03-02T23:46:03.019Z,60.60
2019-03-02T23:48:32.639Z,59.90
2019-03-02T23:51:02.266Z,59.70
2019-03-02T23:53:31.890Z,59.30
2019-03-02T23:56:01.451Z,59.40
2019-03-02T23:58:31.072Z,59.20
